Aérodrome :
LOGIN :

S'inscrire | Disclaimer

   EN    FR    IT 

 










Légende :    VFR   VFR Marginal   IFR   IFR Intensif   IFR Très Intensif
Visi : 
Plafond : 
>= 8 km
>= 3000ft
5 à 8 km
1000 à 3000 ft
1500m à 5 km
500 à 1000 ft
800 à 1500m
200 à 500 ft
< 800m
< 200 ft
Symboles :   Orages  Brouillard  Fortes neiges  Fortes précipitations  Vent > 20 kt
SIGMETs :   Divers  Orages  Givrage  Turbulence  Onde Orograph.  Cendres Volcan.






- Altitude de l'aérodrome : 1106 ft


LFSO - Nancy / Ochey

DERNIER METAR :
  • 190430Z AUTO 29003KT 8000 OVC007 04/03 Q1015

METARs EXPIRÉS :
  • 190400Z AUTO 31004KT 280V350 9999 OVC008 04/03 Q1015
  • 190330Z AUTO 30004KT 260V320 9000 OVC010 04/04 Q1015
  • 190300Z AUTO 32006KT 290V350 9999 OVC008 04/04 Q1015
  • 190230Z AUTO 31007KT 9999 OVC006 04/04 Q1015
  • 190200Z AUTO 28005KT 6000 OVC006 05/04 Q1015

TAF TAF LFSO
Valide du 18 à 15h jusqu'au 19 à 15h UTC


181400Z 1815/1915 23010KT 4000 SNRA OVC006
TEMPO 1816/1901 1500 DZ OVC003
BECMG 1820/1822 2000 BR OVC002
BECMG 1900/1902 0400 FG VV///
BECMG 1908/1910 3000 BR OVC003
BECMG 1910/1912 34005KT 9999 NSW BKN010



MET'MAP, la Météo Aéronautique d'un coup d'oeil ! - Copyright ORBIFLY Décembre 2007 - Disclaimer

ORBIFLY MET'MAP TEAM :

Programmation & Développement : Alexandra Zaïnal
Conception & Développement : Baudouin d'Aumeries
Co-Programmation & Développement : Marc-Olivier Méhu
Soutien technique & logistique : Manuel Goepfert

Contact : metmap@orbifly.com




SOURCES & CREDITS :

   NOAA